Sosnowiec, Poland
Current Conditions -  °F | °C
As of 7:30 PM on Wednesday 26 Nov 2014 (Local Time) from EPKT Reporting Station
Haze Haze  
Wind Chill: 39°   Ceiling: 4200
Heat Index: 39°   Visibility: 3mi
Dew Point: 32°   Wind: 2mph
Humidity: 75%   Direction: 130°SE
Pressure: 30.21"   Gusts: NA
Location:  50.28°N, 19.12°E
Report Text: EPKT 261730Z 13002KT 5000 BR BKN042 04/M00 Q1023
Loading
Personal Weather Stations






























Interactive Weather Map New forecast layout! Learn more

10-Day Weather Forecast

Advertisements
Track Severe Weather on mobile